• Join FlightAware (Why Join?)
  • Login
  • US Flag 
10:51PM EDT


 

Airport Tracker/Info


-or-


 

Live Flight TrackerFlight Track Log ✈ QTR109 ✈ 26-May-2013 ✈ OMDB / DXB - OTBD / DOH

Flight Track Log - Related Links

Times and Time Zones

All times are in EDT time to prevent confusion due to time zone crossing. See the QTR109 flight status page for this flight to view local times or setup timezone preferences in your user account.

Time Position Orientation Groundspeed Altitude Reporting Facility
EDT Latitude Longitude Course Direction KTS MPH feet Rate Location/Type
12:04PM 25.2570 55.3520 114° Southeast  Level FlightAware
12:05PM 25.2580 55.3530 42° Northeast 60 Level FlightAware
12:05PM 25.2600 55.3540 24° Northeast 60 Level FlightAware
12:06PM 25.2590 55.3570 110° East 120 Level FlightAware
12:08PM 25.2540 55.3660 122° Southeast 120 Level FlightAware
12:08PM 25.2530 55.3680 119° Southeast 180 Level FlightAware
12:09PM 25.2510 55.3710 126° Southeast 180 Level FlightAware
12:09PM 25.2500 55.3730 119° Southeast 180 Level FlightAware
12:11PM 25.2470 55.3800 115° Southeast 180 Level FlightAware
12:12PM 25.2480 55.3800 360° North 300 Level FlightAware
12:14PM 25.2650 55.3490 301° West 168 193 1,100 600 Climbing FlightAware
12:14PM 25.2750 55.3320 303° West 174 200 1,700 1,200 Climbing FlightAware
12:15PM 25.2870 55.3120 304° West 185 213 2,100 1,080 Climbing FlightAware
12:16PM 25.2510 55.2040 250° West 278 320 3,800 1,140 Climbing FlightAware
12:17PM 25.2450 55.1900 245° Southwest 290 334 4,100 1,200 Climbing FlightAware
12:17PM 25.2390 55.1580 258° West 310 357 4,400 600 Climbing FlightAware
12:17PM 25.2370 55.1420 262° West 317 365 4,400 1,200 Level FlightAware
12:18PM 25.2310 55.0930 262° West 326 375 5,200 1,860 Climbing FlightAware
12:18PM 25.2240 55.0430 261° West 340 391 6,300 1,560 Climbing FlightAware
12:18PM 25.2180 54.9980 262° West 367 422 6,700 1,800 Climbing FlightAware
12:19PM 25.2110 54.9420 262° West 367 422 8,000 2,400 Climbing FlightAware
12:19PM 25.2070 54.9150 261° West 373 429 8,500 2,520 Climbing FlightAware
12:20PM 25.1990 54.8570 261° West 373 429 9,900 2,460 Climbing FlightAware
12:20PM 25.1890 54.7830 262° West 380 437 11,400 2,100 Climbing FlightAware
12:21PM 25.1920 54.7240 273° West 381 438 12,400 2,220 Climbing FlightAware
12:22PM 25.2090 54.6510 284° West 378 435 14,000 2,040 Climbing FlightAware
12:22PM 25.2340 54.5500 285° West 388 447 15,700 1,860 Climbing FlightAware
12:23PM 25.2510 54.4760 284° West 390 449 17,000 1,740 Climbing FlightAware
12:24PM 25.2740 54.3840 285° West 400 460 18,200 1,500 Climbing FlightAware
12:25PM 25.2940 54.2980 284° West 399 459 19,300 1,080 Climbing FlightAware
12:25PM 25.3090 54.2170 282° West 412 474 19,900 420 Climbing FlightAware
12:26PM 25.3070 54.1040 269° West 414 476 20,000 60 Climbing FlightAware
12:27PM 25.3050 54.0090 269° West 414 476 20,000  Level FlightAware
12:28PM 25.3030 53.9190 269° West 412 474 20,000  Level FlightAware
12:28PM 25.3000 53.8200 268° West 413 475 20,000  Level FlightAware
12:29PM 25.2990 53.7530 269° West 413 475 20,000  Level FlightAware
12:30PM 25.2960 53.6610 268° West 413 475 20,000  Level FlightAware
12:30PM 25.2940 53.5580 269° West 411 473 20,000  Level FlightAware
12:31PM 25.2920 53.4670 269° West 411 473 20,000  Level FlightAware
12:32PM 25.2890 53.3720 268° West 411 473 20,000  Level FlightAware
12:33PM 25.2870 53.2850 269° West 412 474 20,000  Level FlightAware
12:33PM 25.2840 53.2020 268° West 412 474 20,000  Level FlightAware
12:34PM 25.2820 53.1130 269° West 412 474 20,000  Level FlightAware
12:35PM 25.2790 53.0040 268° West 411 473 20,000 -60 Level FlightAware
12:36PM 25.2760 52.8970 268° West 411 473 19,900 -1,380 Descending FlightAware
12:36PM 25.2740 52.8170 268° West 18,700 -2,040 Descending FlightAware
12:37PM 25.2710 52.7220 268° West 393 452 17,000 -2,160 Descending FlightAware
12:38PM 25.2620 52.6500 262° West 390 449 15,700 -2,220 Descending FlightAware
12:38PM 25.2460 52.5680 258° West 388 447 14,100 -2,340 Descending FlightAware
12:39PM 25.2290 52.4830 258° West 374 430 12,500 -1,980 Descending FlightAware
12:40PM 25.2160 52.4170 258° West 365 420 11,400 -1,380 Descending FlightAware
12:41PM 25.2000 52.3360 258° West 337 388 10,700 -1,020 Descending FlightAware
12:41PM 25.1900 52.2860 258° West 327 376 10,200 -1,200 Descending FlightAware
12:42PM 25.1810 52.2360 259° West 321 369 9,500 -1,440 Descending FlightAware
12:42PM 25.1730 52.1990 257° West 317 365 8,900 -1,440 Descending FlightAware
12:42PM 25.1640 52.1520 258° West 314 361 8,200 -1,440 Descending FlightAware
12:43PM 25.1580 52.1220 258° West 314 361 7,700 -1,320 Descending FlightAware
12:44PM 25.1440 52.0550 257° West 315 362 6,800 -780 Descending FlightAware
12:44PM 25.1370 52.0200 258° West 315 362 6,800 -600 Level FlightAware
12:46PM 25.0430 51.8980 230° Southwest 275 316 5,600 -600 Descending FlightAware
12:46PM 25.0200 51.8700 228° Southwest 275 316 5,500 -600 Descending FlightAware
12:47PM 24.9740 51.7940 236° Southwest 222 255 4,600 -660 Descending FlightAware
12:48PM 24.9860 51.7690 298° West 212 244 4,400 -480 Descending FlightAware
12:48PM 24.9990 51.7490 306° West 206 237 4,200 -480 Descending FlightAware
12:49PM 25.0160 51.7240 307° West 206 237 4,000 -540 Descending FlightAware
12:49PM 25.0270 51.7070 306° West 206 237 3,800 -660 Descending FlightAware
12:49PM 25.0410 51.6860 306° West 205 236 3,600 -480 Descending FlightAware
12:50PM 25.0620 51.6560 308° West 197 227 3,300 -480 Descending FlightAware
12:50PM 25.0730 51.6490 330° Northwest 183 211 3,200 -180 Descending FlightAware
12:51PM 25.0910 51.6380 331° Northwest 183 211 3,200 -420 Level FlightAware
12:51PM 25.1090 51.6320 343° North 162 186 2,900 -600 Descending FlightAware
12:52PM 25.1460 51.6160 339° North 171 197 2,500 -900 Descending FlightAware
12:52PM 25.1590 51.6100 337° Northwest 159 183 1,900 -1,200 Descending FlightAware
12:53PM 25.1880 51.5980 339° North 159 183 1,400 -480 Descending FlightAware
12:54PM 25.2090 51.5880 337° Northwest 142 163 1,300 -780 Descending FlightAware
12:54PM 25.2330 51.5770 337° Northwest 138 159 500 -1,620 Descending FlightAware
12:57PM 25.2611 51.5651 339° North  Level Estimated
12:58PM 25.2611 51.5651 324° Northwest  Level Estimated
12:59PM 25.2611 51.5651 324° Northwest  Level Estimated
01:00PM 25.2611 51.5651 324° Northwest  Level Estimated
01:01PM 25.2611 51.5651 324° Northwest  Level Estimated
01:02PM 25.2611 51.5651 324° Northwest  Level Estimated
01:03PM 25.2611 51.5651 324° Northwest  Level Estimated
01:04PM 25.2611 51.5651 324° Northwest  Level Estimated